Impacts METAR Board INFO
IDs:

KBOS - Boston/Logan Intl, MA, US

Updated at: 0126 UTC 13 Dec 2017
Potential Impact None Slight Moderate High
Time12/13Z 12/14Z 12/15Z 12/16Z 12/17Z 12/18Z 12/19Z 12/20Z 12/21Z 12/22Z 12/23Z 13/00Z 13/01Z
VIS10 10 10 10 10 10 10 10 10 10 10 9 6
CIG49 35 48 37 27 37 37 33 19 60 200 13 14
CoverOVCOVCOVCOVCOVCOVCOVCOVCOVCOVCOVCOVCOVC
FltCatVFRVFRVFRVFRMVFRVFRVFRVFRMVFRVFRVFRMVFRMVFR
WX-------RA---RA-------------RA BR
WDir120140130130130130130120160140160270300
WSpd14 12 14 13 9 13 14 13 8 13 4 14 10
WGst-- -- -- -- -- -- -- -- -- -- -- 20 --
Raw hourly METARs
KBOS 121254Z 12014KT 10SM BKN049 OVC080 04/01 A2979 RMK AO2 SLP088 T00390006
KBOS 121354Z 14012KT 10SM BKN035 OVC045 04/01 A2978 RMK AO2 SLP082 T00440011
KBOS 121454Z 13014KT 10SM FEW036 OVC048 05/02 A2973 RMK AO2 SLP068 T00500017 58033
KBOS 121554Z 13013KT 10SM -RA FEW028 BKN037 OVC048 05/03 A2967 RMK AO2 RAB11 PRESFR SLP045 P0001 T00500028
KBOS 121654Z 13009KT 10SM OVC027 06/03 A2960 RMK AO2 RAE20B28E48 SLP023 P0000 T00560033
KBOS 121754Z 13013KT 10SM -RA BKN037 OVC045 06/04 A2953 RMK A02 RAB29 SLP000 POOO1 60002 T00610044 10061 20033 56045
KBOS 121854Z 13014KT 10SM OVC037 07/05 A2948 RMK AO2 RAE21 SLP983 P0000 T00720050
KBOS 121954Z 12013KT 10SM FEW019 BKN033 BKN050 OVC150 07/06 A2943 RMK AO2 SLP965 T00720056
KBOS 122054Z 16008KT 10SM FEW012 BKN019 OVC040 07/06 A2939 RMK AO2 SLP953 60000 T00720061 56029
KBOS 122154Z 14013KT 10SM SCT021 BKN060 OVC110 07/06 A2936 RMK AO2 SLP941 T00720061
KBOS 122254Z 16004KT 10SM FEW027 SCT120 OVC200 07/06 A2932 RMK AO2 SLP929 T00720061
KBOS 122354Z 27014G20KT 9SM FEW008 BKN013 OVC031 07/05 A2931 RMK AO2 SLP926 60000 T00670050 10078 20061 56027
KBOS 130054Z 30010KT 6SM -RA BR SCT009 BKN014 OVC031 03/02 A2931 RMK AO2 PK WND 28027/2357 WSHFT 2347 RAB41 SLP923 P0000 T00280022